Time;durP1;ratioP1;P1;durP2;ratioP2;P2;SDS_P1;SDS_P2;PMS_P1;PMS_P2;Temp;Humidity;BMP_temperature;BMP_pressure;BME280_temperature;BME280_humidity;BME280_pressure;Samples;Min_cycle;Max_cycle;Signal;HPM_P1;HPM_P2
2022/03/16 00:00:20;;;;;;;24.85;22.10;;;8.90;99.90;;;;;;5121058;28;20462;-80
2022/03/16 00:02:46;;;;;;;24.02;21.17;;;8.80;99.90;;;;;;5103662;28;20054;-80
2022/03/16 00:05:12;;;;;;;26.58;22.88;;;8.60;99.90;;;;;;5105100;28;20024;-80
2022/03/16 00:07:38;;;;;;;26.63;21.85;;;8.60;99.90;;;;;;5101620;28;20012;-80
2022/03/16 00:10:07;;;;;;;27.92;23.05;;;8.50;99.90;;;;;;5096987;28;20062;-78
2022/03/16 00:12:34;;;;;;;25.38;22.27;;;8.50;99.90;;;;;;5107657;28;20106;-80
2022/03/16 00:14:59;;;;;;;26.60;22.35;;;8.50;99.90;;;;;;5096015;28;20176;-80
2022/03/16 00:17:25;;;;;;;26.67;22.42;;;8.50;99.90;;;;;;5097299;28;20196;-81
2022/03/16 00:19:51;;;;;;;27.73;23.35;;;8.50;99.90;;;;;;5118977;28;20040;-80
2022/03/16 00:22:16;;;;;;;27.35;23.42;;;8.50;99.90;;;;;;5098760;28;20043;-81
2022/03/16 00:24:42;;;;;;;28.80;24.65;;;8.50;99.90;;;;;;5103547;28;20062;-79
2022/03/16 00:27:08;;;;;;;27.23;22.85;;;8.50;99.90;;;;;;5104785;28;20323;-80
2022/03/16 00:29:33;;;;;;;28.10;23.83;;;8.70;99.90;;;;;;5104800;28;20027;-80
2022/03/16 00:31:59;;;;;;;28.85;23.25;;;8.70;99.90;;;;;;5104190;28;20031;-80
2022/03/16 00:34:25;;;;;;;26.73;23.45;;;8.70;99.90;;;;;;5120300;28;20028;-80
2022/03/16 00:36:51;;;;;;;26.17;22.85;;;8.70;99.90;;;;;;5102946;28;20039;-81
2022/03/16 00:39:16;;;;;;;26.92;22.73;;;8.70;99.90;;;;;;5104848;28;20024;-79
2022/03/16 00:41:42;;;;;;;26.73;22.17;;;8.80;99.90;;;;;;5102293;28;20023;-78
2022/03/16 00:44:08;;;;;;;29.52;23.38;;;8.90;99.90;;;;;;5110440;27;20045;-77
2022/03/16 00:46:34;;;;;;;28.17;24.10;;;8.90;99.90;;;;;;5091373;28;20063;-77
2022/03/16 00:49:00;;;;;;;30.52;25.35;;;8.90;99.90;;;;;;5095785;28;20034;-80
2022/03/16 00:51:26;;;;;;;34.30;26.67;;;8.90;99.90;;;;;;5106919;28;20036;-79
2022/03/16 00:53:53;;;;;;;31.70;26.52;;;8.90;99.90;;;;;;5088478;28;20059;-78
2022/03/16 00:56:18;;;;;;;29.63;25.02;;;8.90;99.90;;;;;;5111730;28;20180;-78
2022/03/16 00:58:44;;;;;;;30.80;25.60;;;8.70;99.90;;;;;;5112560;28;20643;-78
2022/03/16 01:01:09;;;;;;;31.52;26.75;;;8.70;99.90;;;;;;5085548;28;20083;-77
2022/03/16 01:03:35;;;;;;;34.30;26.63;;;8.70;99.90;;;;;;5090743;28;20102;-76
2022/03/16 01:06:02;;;;;;;35.33;27.35;;;8.80;99.90;;;;;;5092766;28;20024;-77
2022/03/16 01:08:28;;;;;;;40.33;29.45;;;8.80;99.90;;;;;;5088873;28;20019;-75
2022/03/16 01:10:54;;;;;;;34.20;27.75;;;8.70;99.90;;;;;;5108038;28;20110;-78
2022/03/16 01:13:19;;;;;;;39.63;29.40;;;8.60;99.90;;;;;;5111795;28;20048;-77
2022/03/16 01:15:45;;;;;;;36.63;26.67;;;8.50;99.90;;;;;;5089734;28;20494;-77
2022/03/16 01:18:11;;;;;;;35.35;28.48;;;8.50;99.90;;;;;;5110229;28;20020;-77
2022/03/16 01:20:36;;;;;;;36.10;27.73;;;8.50;99.90;;;;;;5111948;28;20533;-78
2022/03/16 01:23:02;;;;;;;38.90;28.20;;;8.40;99.90;;;;;;5095362;28;20026;-77
2022/03/16 01:25:27;;;;;;;39.60;28.50;;;8.40;99.90;;;;;;5086328;28;20020;-76
2022/03/16 01:27:53;;;;;;;41.70;29.58;;;8.40;99.90;;;;;;5107254;28;20047;-76
2022/03/16 01:30:19;;;;;;;39.45;29.02;;;8.30;99.90;;;;;;5112392;28;20040;-78
2022/03/16 01:32:44;;;;;;;40.63;29.58;;;8.30;99.90;;;;;;5093471;28;20035;-78
2022/03/16 01:35:10;;;;;;;40.38;28.52;;;8.30;99.90;;;;;;5110286;28;20027;-76
2022/03/16 01:37:36;;;;;;;40.22;29.40;;;8.40;99.90;;;;;;5111577;28;20031;-77
2022/03/16 01:40:04;;;;;;;39.05;29.50;;;8.50;99.90;;;;;;5108158;28;20027;-76
2022/03/16 01:42:29;;;;;;;40.53;30.92;;;8.50;99.90;;;;;;5110253;28;20015;-77
2022/03/16 01:44:58;;;;;;;41.10;30.60;;;8.50;99.90;;;;;;5086621;28;20020;-76
2022/03/16 01:47:25;;;;;;;46.70;32.78;;;8.40;99.90;;;;;;5093332;28;20102;-77
2022/03/16 01:49:55;;;;;;;42.20;30.92;;;8.40;99.90;;;;;;5092846;28;20051;-76
2022/03/16 01:52:29;;;;;;;40.97;29.77;;;8.30;99.90;;;;;;5088206;28;20048;-78
2022/03/16 01:54:56;;;;;;;42.70;30.80;;;8.30;99.90;;;;;;5089372;28;20024;-76
2022/03/16 01:57:22;;;;;;;44.13;31.20;;;8.30;99.90;;;;;;5088245;28;20088;-77
2022/03/16 01:59:48;;;;;;;42.85;30.48;;;8.40;99.90;;;;;;5107674;28;20036;-77
2022/03/16 02:02:14;;;;;;;45.92;31.95;;;8.40;99.90;;;;;;5106288;28;20045;-77
2022/03/16 02:04:41;;;;;;;46.25;32.67;;;8.50;99.90;;;;;;5111241;28;20051;-77
2022/03/16 02:07:07;;;;;;;47.58;31.08;;;8.40;99.90;;;;;;5093402;28;20119;-79
2022/03/16 02:09:33;;;;;;;46.63;32.22;;;8.40;99.90;;;;;;5102213;28;20058;-77
2022/03/16 02:11:58;;;;;;;42.58;29.73;;;8.40;99.90;;;;;;5095479;28;20050;-78
2022/03/16 02:14:24;;;;;;;40.13;29.88;;;8.50;99.90;;;;;;5094827;28;20046;-78
2022/03/16 02:16:50;;;;;;;41.22;29.73;;;8.60;99.90;;;;;;5108736;28;20058;-76
2022/03/16 02:19:16;;;;;;;43.17;31.70;;;8.70;99.90;;;;;;5109199;28;20051;-77
2022/03/16 02:21:45;;;;;;;45.03;31.40;;;8.70;99.90;;;;;;5109339;28;20034;-77
2022/03/16 02:24:11;;;;;;;44.25;30.80;;;8.70;99.90;;;;;;5095037;28;20016;-77
2022/03/16 02:26:37;;;;;;;48.17;31.98;;;8.70;99.90;;;;;;5107183;28;20014;-76
2022/03/16 02:29:03;;;;;;;44.17;31.80;;;8.70;99.90;;;;;;5110339;28;20049;-77
2022/03/16 02:31:29;;;;;;;46.60;31.52;;;8.60;99.90;;;;;;5092307;28;20108;-76
2022/03/16 02:33:54;;;;;;;44.03;31.85;;;8.70;99.90;;;;;;5112703;28;20030;-77
2022/03/16 02:36:20;;;;;;;46.97;31.98;;;8.60;99.90;;;;;;5114045;28;20028;-78
2022/03/16 02:38:46;;;;;;;44.38;32.58;;;8.70;99.90;;;;;;5108528;28;20088;-77
2022/03/16 02:41:12;;;;;;;43.80;31.55;;;8.60;99.90;;;;;;5094098;28;20501;-76
2022/03/16 02:43:38;;;;;;;44.53;31.25;;;8.60;99.90;;;;;;5095277;28;20016;-77
2022/03/16 02:46:04;;;;;;;47.85;31.83;;;8.70;99.90;;;;;;5113660;28;20016;-78
2022/03/16 02:48:30;;;;;;;48.15;33.08;;;8.70;99.90;;;;;;5113766;28;20019;-76
2022/03/16 02:50:55;;;;;;;49.22;34.33;;;8.70;99.90;;;;;;5109141;28;20728;-77
2022/03/16 02:53:21;;;;;;;52.03;33.92;;;8.50;99.90;;;;;;5096853;28;20024;-76
2022/03/16 02:55:47;;;;;;;50.15;33.72;;;8.50;99.90;;;;;;5096216;28;20028;-76
2022/03/16 02:58:15;;;;;;;49.15;32.58;;;8.40;99.90;;;;;;5095538;28;20066;-76
2022/03/16 03:00:41;;;;;;;45.75;31.02;;;8.40;99.90;;;;;;5093794;28;20090;-77
2022/03/16 03:03:06;;;;;;;51.83;34.00;;;8.50;99.90;;;;;;5113461;28;20391;-76
2022/03/16 03:05:32;;;;;;;48.85;34.78;;;8.40;99.90;;;;;;5113229;28;20031;-78
2022/03/16 03:07:59;;;;;;;44.90;31.35;;;8.40;99.90;;;;;;5113508;28;20023;-78
2022/03/16 03:10:24;;;;;;;44.90;32.10;;;8.40;99.90;;;;;;5113536;28;20023;-77
2022/03/16 03:12:50;;;;;;;47.50;31.85;;;8.40;99.90;;;;;;5090500;28;20039;-77
2022/03/16 03:15:16;;;;;;;44.70;31.45;;;8.50;99.90;;;;;;5095433;28;20113;-77
2022/03/16 03:17:42;;;;;;;49.20;30.95;;;8.60;99.90;;;;;;5097206;28;20091;-76
2022/03/16 03:20:09;;;;;;;44.40;30.67;;;8.50;99.90;;;;;;5100769;28;20387;-76
2022/03/16 03:22:35;;;;;;;43.35;31.50;;;8.60;99.90;;;;;;5113467;28;20089;-76
2022/03/16 03:25:01;;;;;;;48.95;32.20;;;8.60;99.90;;;;;;5118602;28;20024;-76
2022/03/16 03:27:27;;;;;;;45.75;32.08;;;8.50;99.90;;;;;;5117562;28;20023;-76
2022/03/16 03:29:52;;;;;;;47.17;32.30;;;8.50;99.90;;;;;;5112411;28;20046;-77
2022/03/16 03:32:18;;;;;;;46.70;33.75;;;8.50;99.90;;;;;;5094906;28;20442;-78
2022/03/16 03:34:47;;;;;;;48.30;32.85;;;8.50;99.90;;;;;;5112570;28;20040;-77
2022/03/16 03:37:14;;;;;;;45.83;31.67;;;8.40;99.90;;;;;;5093223;28;20023;-76
2022/03/16 03:39:40;;;;;;;46.95;33.20;;;8.40;99.90;;;;;;5094095;28;20086;-77
2022/03/16 03:42:06;;;;;;;50.30;33.40;;;8.40;99.90;;;;;;5094908;28;20054;-75
2022/03/16 03:44:31;;;;;;;45.97;32.45;;;8.40;99.90;;;;;;5112057;28;20016;-77
2022/03/16 03:46:57;;;;;;;45.67;32.55;;;8.40;99.90;;;;;;5097185;28;20023;-77
2022/03/16 03:49:23;;;;;;;47.28;34.30;;;8.40;99.90;;;;;;5109643;28;20028;-77
2022/03/16 03:51:48;;;;;;;50.20;34.10;;;8.30;99.90;;;;;;5107970;28;20038;-78
2022/03/16 03:54:14;;;;;;;49.22;34.00;;;8.40;99.90;;;;;;5106835;28;20365;-77
2022/03/16 03:56:39;;;;;;;50.38;35.17;;;8.40;99.90;;;;;;5090854;28;20027;-77
2022/03/16 03:59:05;;;;;;;49.42;33.47;;;8.40;99.90;;;;;;5094567;28;20020;-77
2022/03/16 04:01:31;;;;;;;51.47;35.00;;;8.30;99.90;;;;;;5094403;28;20030;-77
2022/03/16 04:03:56;;;;;;;50.22;34.47;;;8.20;99.90;;;;;;5109625;28;20026;-77
2022/03/16 04:06:22;;;;;;;51.80;35.72;;;8.20;99.90;;;;;;5113951;28;20023;-78
2022/03/16 04:08:47;;;;;;;52.03;35.85;;;8.30;99.90;;;;;;5089215;28;20020;-77
2022/03/16 04:11:13;;;;;;;50.88;34.55;;;8.40;99.90;;;;;;5108365;28;20047;-76
2022/03/16 04:13:38;;;;;;;52.85;35.03;;;8.40;99.90;;;;;;5110900;28;20031;-76
2022/03/16 04:16:04;;;;;;;51.10;35.80;;;8.30;99.90;;;;;;5113532;28;20051;-78
2022/03/16 04:18:30;;;;;;;51.58;35.55;;;8.50;99.90;;;;;;5086593;28;20035;-78
2022/03/16 04:20:56;;;;;;;48.67;34.20;;;8.50;99.90;;;;;;5093727;28;20077;-77
2022/03/16 04:23:21;;;;;;;49.63;34.17;;;8.50;99.90;;;;;;5112399;28;20030;-77
2022/03/16 04:25:47;;;;;;;50.95;35.28;;;8.60;99.90;;;;;;5112947;28;20545;-77
2022/03/16 04:28:13;;;;;;;52.28;36.20;;;8.50;99.90;;;;;;5094701;28;20034;-78
2022/03/16 04:30:38;;;;;;;57.88;37.38;;;8.40;99.90;;;;;;5094286;28;20038;-79
2022/03/16 04:33:04;;;;;;;52.80;34.90;;;8.40;99.90;;;;;;5090792;28;20023;-76
2022/03/16 04:35:30;;;;;;;53.92;36.30;;;8.40;99.90;;;;;;5111926;28;20028;-77
2022/03/16 04:37:56;;;;;;;54.72;36.47;;;8.40;99.90;;;;;;5091953;28;20036;-77
2022/03/16 04:40:21;;;;;;;54.47;35.13;;;8.40;99.90;;;;;;5092266;28;20020;-76
2022/03/16 04:42:47;;;;;;;50.50;34.63;;;8.40;99.90;;;;;;5112599;28;20020;-78
2022/03/16 04:45:13;;;;;;;54.15;35.72;;;8.40;99.90;;;;;;5111717;28;20032;-77
2022/03/16 04:47:38;;;;;;;53.10;35.53;;;8.40;99.90;;;;;;5112351;28;20023;-76
2022/03/16 04:50:05;;;;;;;55.58;36.00;;;8.40;99.90;;;;;;5110906;28;20023;-78
2022/03/16 04:52:31;;;;;;;53.95;35.88;;;8.40;99.90;;;;;;5091656;28;20019;-77
2022/03/16 04:54:56;;;;;;;57.97;37.70;;;8.30;99.90;;;;;;5094741;28;20110;-77
2022/03/16 04:57:22;;;;;;;56.90;36.25;;;8.40;99.90;;;;;;5111579;28;20043;-78
2022/03/16 04:59:47;;;;;;;57.42;35.90;;;8.30;99.90;;;;;;5112600;28;20077;-77
2022/03/16 05:02:13;;;;;;;53.03;35.85;;;8.20;99.90;;;;;;5112612;28;20509;-79
2022/03/16 05:04:38;;;;;;;58.83;38.22;;;8.30;99.90;;;;;;5112433;28;20092;-77
2022/03/16 05:07:04;;;;;;;60.08;38.17;;;8.40;99.90;;;;;;5108938;28;20099;-77
2022/03/16 05:09:30;;;;;;;53.30;36.60;;;8.30;99.90;;;;;;5109725;28;20106;-78
2022/03/16 05:11:55;;;;;;;53.63;36.28;;;8.40;99.90;;;;;;5095132;28;20028;-77
2022/03/16 05:14:21;;;;;;;56.05;35.78;;;8.40;99.90;;;;;;5093557;28;20054;-78
2022/03/16 05:16:47;;;;;;;58.63;37.35;;;8.40;99.90;;;;;;5092999;28;20027;-79
2022/03/16 05:19:12;;;;;;;52.42;36.22;;;8.30;99.90;;;;;;5111626;28;20031;-77
2022/03/16 05:21:38;;;;;;;60.22;37.97;;;8.30;99.90;;;;;;5111985;28;20038;-78
2022/03/16 05:24:04;;;;;;;55.05;35.67;;;8.30;99.90;;;;;;5094674;28;20390;-76
2022/03/16 05:26:30;;;;;;;52.50;35.47;;;8.30;99.90;;;;;;5111802;28;20020;-77
2022/03/16 05:28:56;;;;;;;53.50;36.42;;;8.40;99.90;;;;;;5104766;28;20384;-78
2022/03/16 05:31:22;;;;;;;59.88;37.45;;;8.40;99.90;;;;;;5091256;28;20020;-78
2022/03/16 05:33:48;;;;;;;58.15;38.13;;;8.40;99.90;;;;;;5110945;28;20028;-76
2022/03/16 05:36:14;;;;;;;56.13;36.40;;;8.40;99.90;;;;;;5092416;28;20032;-77
2022/03/16 05:38:40;;;;;;;61.05;36.35;;;8.40;99.90;;;;;;5109111;28;20028;-77
2022/03/16 05:41:05;;;;;;;60.03;37.95;;;8.20;99.90;;;;;;5088451;28;20036;-77
2022/03/16 05:43:31;;;;;;;61.95;39.60;;;8.10;99.90;;;;;;5108673;28;20372;-77
2022/03/16 05:45:56;;;;;;;61.85;39.00;;;8.10;99.90;;;;;;5112177;28;20728;-76
2022/03/16 05:48:22;;;;;;;58.42;37.78;;;8.10;99.90;;;;;;5112263;28;20032;-78
2022/03/16 05:50:48;;;;;;;56.70;37.78;;;8.20;99.90;;;;;;5092575;28;20027;-77
2022/03/16 05:53:14;;;;;;;58.17;38.03;;;8.20;99.90;;;;;;5113304;28;20020;-78
2022/03/16 05:55:40;;;;;;;58.60;36.92;;;8.20;99.90;;;;;;5116211;28;20053;-76
2022/03/16 05:58:07;;;;;;;58.47;39.38;;;8.20;99.90;;;;;;5091776;28;20050;-77
2022/03/16 06:00:32;;;;;;;58.05;39.10;;;8.10;99.90;;;;;;5097196;28;20020;-76
2022/03/16 06:02:58;;;;;;;53.80;36.38;;;8.10;99.90;;;;;;5114754;28;20056;-79
2022/03/16 06:05:24;;;;;;;57.97;37.00;;;8.10;99.90;;;;;;5113776;28;20020;-79
2022/03/16 06:07:49;;;;;;;59.28;38.10;;;8.10;99.90;;;;;;5093342;28;20103;-76
2022/03/16 06:10:17;;;;;;;54.65;36.25;;;8.20;99.90;;;;;;5096075;28;20091;-78
2022/03/16 06:13:03;;;;;;;56.72;36.25;;;8.20;99.90;;;;;;5093027;28;20024;-79
2022/03/16 06:15:30;;;;;;;48.63;34.75;;;8.30;99.90;;;;;;5115101;28;20024;-77
2022/03/16 06:17:58;;;;;;;53.33;35.28;;;8.40;99.90;;;;;;5097684;28;20069;-77
2022/03/16 06:20:25;;;;;;;55.83;36.63;;;8.50;99.90;;;;;;5109954;28;20047;-78
2022/03/16 06:22:51;;;;;;;56.65;36.80;;;8.50;99.90;;;;;;5076573;28;20028;-76
2022/03/16 06:25:16;;;;;;;54.25;35.53;;;8.50;99.90;;;;;;5096009;28;20556;-78
2022/03/16 06:27:42;;;;;;;54.17;36.20;;;8.60;99.90;;;;;;5093547;28;20023;-77
2022/03/16 06:30:08;;;;;;;58.10;37.78;;;8.60;99.90;;;;;;5116758;28;20079;-76
2022/03/16 06:32:34;;;;;;;58.78;37.22;;;8.60;99.90;;;;;;5114344;28;20059;-77
2022/03/16 06:35:00;;;;;;;57.65;35.42;;;8.70;99.90;;;;;;5098992;28;20026;-78
2022/03/16 06:37:25;;;;;;;54.85;32.80;;;8.70;99.90;;;;;;5111619;28;20027;-77
2022/03/16 06:39:51;;;;;;;57.65;36.35;;;8.70;99.90;;;;;;5108641;28;20536;-77
2022/03/16 06:42:17;;;;;;;54.22;32.28;;;8.80;99.90;;;;;;5097286;28;20031;-77
2022/03/16 06:44:42;;;;;;;47.08;29.95;;;8.90;99.90;;;;;;5109324;28;20046;-77
2022/03/16 06:47:08;;;;;;;44.28;30.15;;;8.90;99.90;;;;;;5115925;28;20098;-76
2022/03/16 06:49:33;;;;;;;46.15;30.05;;;8.90;99.90;;;;;;5096477;28;20453;-76
2022/03/16 06:51:59;;;;;;;45.30;29.67;;;8.90;99.90;;;;;;5112571;28;20055;-78
2022/03/16 06:54:24;;;;;;;51.38;32.65;;;8.80;99.90;;;;;;5107884;28;20034;-75
2022/03/16 06:56:50;;;;;;;47.40;30.88;;;8.80;99.90;;;;;;5112770;28;20040;-75
2022/03/16 06:59:15;;;;;;;40.95;29.15;;;8.80;99.90;;;;;;5112564;28;20024;-75
2022/03/16 07:01:41;;;;;;;48.25;30.63;;;8.70;99.90;;;;;;5113340;28;20023;-75
2022/03/16 07:04:07;;;;;;;45.95;29.70;;;8.70;99.90;;;;;;5107843;28;20019;-74
2022/03/16 07:06:33;;;;;;;45.63;30.55;;;8.70;99.90;;;;;;5112893;28;20020;-76
2022/03/16 07:08:58;;;;;;;44.30;28.90;;;8.80;99.90;;;;;;5112509;28;20440;-76
2022/03/16 07:11:24;;;;;;;44.15;28.83;;;8.80;99.90;;;;;;5125137;28;20069;-75
2022/03/16 07:16:34;;;;;;;43.72;29.60;;;8.80;99.90;;;;;;5115295;28;20076;-75
2022/03/16 07:19:00;;;;;;;44.33;29.65;;;8.90;99.90;;;;;;5096283;28;20028;-75
2022/03/16 07:21:26;;;;;;;47.15;30.42;;;8.90;99.90;;;;;;5123130;28;20035;-75
2022/03/16 07:23:51;;;;;;;44.47;29.60;;;8.90;99.90;;;;;;5112124;28;20076;-74
2022/03/16 07:26:17;;;;;;;44.80;29.02;;;8.90;99.90;;;;;;5119104;28;20535;-74
2022/03/16 07:28:42;;;;;;;42.30;30.17;;;8.90;99.90;;;;;;5115045;28;20012;-74
2022/03/16 07:31:08;;;;;;;45.35;29.00;;;8.90;99.90;;;;;;5088351;28;20028;-75
2022/03/16 07:33:35;;;;;;;41.35;27.77;;;8.90;99.90;;;;;;5110349;28;20047;-76
2022/03/16 07:36:01;;;;;;;38.67;26.63;;;8.90;99.90;;;;;;5113658;28;20181;-74
2022/03/16 07:38:27;;;;;;;45.67;29.20;;;8.90;99.90;;;;;;5105141;28;20042;-74
2022/03/16 07:40:53;;;;;;;40.33;28.02;;;8.90;99.90;;;;;;5087990;28;20518;-74
2022/03/16 07:43:18;;;;;;;38.03;25.30;;;8.90;99.90;;;;;;5112786;28;20026;-74
2022/03/16 07:45:44;;;;;;;40.95;26.77;;;8.80;99.90;;;;;;5110301;28;20047;-75
2022/03/16 07:48:09;;;;;;;38.72;27.17;;;8.80;99.90;;;;;;5116295;28;20019;-75
2022/03/16 07:50:36;;;;;;;45.33;27.95;;;8.80;99.90;;;;;;5108578;28;20078;-76
2022/03/16 07:53:02;;;;;;;43.08;27.20;;;8.70;99.90;;;;;;5117739;28;20043;-75
2022/03/16 07:55:27;;;;;;;40.05;28.80;;;8.70;99.90;;;;;;5120330;28;20123;-75
2022/03/16 07:57:55;;;;;;;39.10;27.27;;;8.80;99.90;;;;;;5087419;28;20059;-73
2022/03/16 08:00:21;;;;;;;38.95;27.33;;;8.80;99.90;;;;;;5106586;28;20020;-75
2022/03/16 08:02:47;;;;;;;36.45;26.58;;;8.90;99.90;;;;;;5089772;28;20020;-75
2022/03/16 08:05:16;;;;;;;36.33;26.02;;;8.90;99.90;;;;;;5095110;28;20023;-76
2022/03/16 08:07:42;;;;;;;36.63;26.38;;;8.90;99.90;;;;;;5112821;28;20018;-75
2022/03/16 08:10:08;;;;;;;39.92;26.90;;;8.90;99.90;;;;;;5088167;28;20028;-74
2022/03/16 08:12:34;;;;;;;34.97;25.10;;;8.90;99.90;;;;;;5113481;28;20064;-74
2022/03/16 08:15:00;;;;;;;32.67;24.63;;;8.80;99.90;;;;;;5093473;28;20111;-75
2022/03/16 08:17:26;;;;;;;40.70;24.77;;;8.80;99.90;;;;;;5111587;28;20120;-75
2022/03/16 08:19:52;;;;;;;39.65;25.13;;;8.90;99.90;;;;;;5113020;28;20494;-75
2022/03/16 08:22:29;;;;;;;41.08;27.13;;;9.00;99.90;;;;;;5093382;28;20032;-76
2022/03/16 08:24:55;;;;;;;34.38;25.10;;;9.00;99.90;;;;;;5091107;28;20031;-74
2022/03/16 08:27:22;;;;;;;35.42;25.02;;;9.10;99.90;;;;;;5110033;28;20026;-75
2022/03/16 08:29:48;;;;;;;34.58;24.58;;;9.10;99.90;;;;;;5108742;28;20019;-74
2022/03/16 08:32:14;;;;;;;32.05;24.17;;;9.20;99.90;;;;;;5107695;28;20042;-76
2022/03/16 08:34:39;;;;;;;34.85;25.35;;;9.20;99.90;;;;;;5102744;28;20024;-75
2022/03/16 08:37:05;;;;;;;29.45;22.52;;;9.10;99.90;;;;;;5108889;28;20069;-76
2022/03/16 08:39:30;;;;;;;30.95;24.23;;;9.30;99.90;;;;;;5107610;28;20024;-74
2022/03/16 08:41:56;;;;;;;32.20;23.20;;;9.30;99.90;;;;;;5092095;28;20036;-77
2022/03/16 08:44:24;;;;;;;31.33;24.08;;;9.50;99.90;;;;;;5109333;28;20054;-75
2022/03/16 08:46:50;;;;;;;31.45;22.55;;;9.50;99.90;;;;;;5111920;28;20073;-71
2022/03/16 08:49:21;;;;;;;36.22;23.95;;;9.40;99.90;;;;;;5111735;28;20069;-71
2022/03/16 08:51:47;;;;;;;29.20;22.80;;;9.50;99.90;;;;;;5112146;28;20034;-71
2022/03/16 08:54:13;;;;;;;30.83;22.70;;;9.50;99.90;;;;;;5108894;28;20020;-71
2022/03/16 08:56:39;;;;;;;29.60;22.95;;;9.60;99.90;;;;;;5105239;28;20414;-71
2022/03/16 08:59:04;;;;;;;29.85;22.80;;;9.60;99.90;;;;;;5093928;28;20024;-72
2022/03/16 09:01:30;;;;;;;34.53;24.27;;;9.60;99.90;;;;;;5111660;28;20034;-71
2022/03/16 09:03:55;;;;;;;31.45;22.95;;;9.60;99.90;;;;;;5112271;28;20442;-72
2022/03/16 09:06:21;;;;;;;30.40;22.80;;;9.60;99.90;;;;;;5093006;28;20034;-71
2022/03/16 09:08:47;;;;;;;30.40;23.92;;;9.70;99.90;;;;;;5095570;28;20020;-71
2022/03/16 09:11:13;;;;;;;30.08;23.23;;;9.80;99.90;;;;;;5093005;28;20032;-71
2022/03/16 09:13:39;;;;;;;28.58;22.67;;;9.80;99.90;;;;;;5104969;28;20375;-72
2022/03/16 09:16:06;;;;;;;29.42;22.70;;;9.90;99.90;;;;;;5111801;28;20028;-71
2022/03/16 09:18:32;;;;;;;31.92;23.02;;;10.00;99.90;;;;;;5111465;28;20069;-73
2022/03/16 09:21:00;;;;;;;32.85;23.58;;;10.10;99.90;;;;;;5111778;28;20106;-72
2022/03/16 09:23:31;;;;;;;29.30;22.52;;;10.10;99.90;;;;;;5111730;28;20024;-72
2022/03/16 09:25:57;;;;;;;33.78;24.13;;;10.20;99.90;;;;;;5108718;28;20011;-71
2022/03/16 09:28:23;;;;;;;26.65;21.33;;;10.30;99.90;;;;;;5092859;28;20023;-71
2022/03/16 09:30:49;;;;;;;29.73;22.75;;;10.40;99.90;;;;;;5087904;28;20105;-72
2022/03/16 09:33:15;;;;;;;30.27;22.17;;;10.40;99.90;;;;;;5110686;28;20076;-71
2022/03/16 09:35:40;;;;;;;30.67;22.70;;;10.40;99.90;;;;;;5111240;28;20023;-71
2022/03/16 09:38:06;;;;;;;30.65;22.75;;;10.50;99.90;;;;;;5111579;28;20496;-71
2022/03/16 09:40:33;;;;;;;29.40;22.10;;;10.50;99.90;;;;;;5107064;28;20418;-71
2022/03/16 09:42:59;;;;;;;29.40;21.85;;;10.60;99.90;;;;;;5112017;28;20058;-71
2022/03/16 09:45:29;;;;;;;26.88;21.70;;;10.80;99.90;;;;;;5106957;28;20061;-71
2022/03/16 09:47:55;;;;;;;30.67;22.38;;;10.80;99.90;;;;;;5110605;28;20047;-70
2022/03/16 09:50:21;;;;;;;26.58;22.15;;;10.90;99.90;;;;;;5107199;28;20026;-72
2022/03/16 09:52:48;;;;;;;30.05;22.45;;;11.10;99.90;;;;;;5104157;28;20024;-71
2022/03/16 09:55:14;;;;;;;30.33;21.77;;;11.10;99.90;;;;;;5111141;28;20035;-72
2022/03/16 09:57:41;;;;;;;25.40;21.45;;;11.20;99.90;;;;;;5111540;28;20027;-72
2022/03/16 10:00:12;;;;;;;27.73;20.90;;;11.30;99.90;;;;;;5111729;28;20023;-71
2022/03/16 10:02:38;;;;;;;25.77;20.90;;;11.40;99.90;;;;;;5110813;28;20027;-70
2022/03/16 10:05:09;;;;;;;27.88;21.58;;;11.40;99.90;;;;;;5111019;28;20047;-72
2022/03/16 10:07:36;;;;;;;25.20;20.80;;;11.50;99.90;;;;;;5111439;28;20073;-71
2022/03/16 10:15:33;;;;;;;28.02;20.23;;;11.70;99.90;;;;;;5112922;28;20061;-72
2022/03/16 10:18:02;;;;;;;30.65;23.05;;;11.80;99.90;;;;;;5096466;28;20035;-72
2022/03/16 10:20:31;;;;;;;28.02;20.60;;;11.90;99.90;;;;;;5092170;28;20024;-72
2022/03/16 10:23:06;;;;;;;26.02;19.38;;;12.00;99.90;;;;;;5106729;28;20020;-71
2022/03/16 10:25:38;;;;;;;23.30;19.85;;;12.10;99.90;;;;;;5103649;28;20070;-71
2022/03/16 10:28:21;;;;;;;28.17;20.45;;;12.20;99.90;;;;;;5084757;28;20032;-71
2022/03/16 10:31:08;;;;;;;27.65;19.85;;;12.20;99.90;;;;;;5104893;28;20023;-72
2022/03/16 10:33:43;;;;;;;26.25;18.85;;;12.40;99.90;;;;;;5108860;28;20020;-71
2022/03/16 10:36:14;;;;;;;25.83;18.55;;;12.50;99.90;;;;;;5108068;28;20383;-72
2022/03/16 10:38:54;;;;;;;25.90;19.08;;;12.20;99.90;;;;;;5103585;28;20030;-72
2022/03/16 10:47:09;;;;;;;28.98;17.42;;;11.80;99.90;;;;;;5111763;28;20034;-71
2022/03/16 10:49:34;;;;;;;20.65;17.33;;;12.00;99.90;;;;;;5111973;28;20024;-72
2022/03/16 10:52:14;;;;;;;20.38;17.33;;;12.30;99.90;;;;;;5112594;28;20103;-71
2022/03/16 10:54:41;;;;;;;19.75;17.58;;;12.50;99.90;;;;;;5102190;28;20035;-72
2022/03/16 10:57:10;;;;;;;20.75;16.83;;;13.10;99.90;;;;;;5114727;28;20031;-70
2022/03/16 10:59:36;;;;;;;19.00;16.58;;;13.30;99.90;;;;;;5110047;28;20472;-72
2022/03/16 11:02:12;;;;;;;19.27;17.20;;;13.30;99.90;;;;;;5112398;28;20032;-72
2022/03/16 11:04:38;;;;;;;20.25;17.50;;;13.20;99.90;;;;;;5106749;28;20091;-71
2022/03/16 11:07:06;;;;;;;20.83;17.50;;;13.00;99.90;;;;;;5096113;28;20020;-72
2022/03/16 11:09:32;;;;;;;18.67;16.50;;;12.80;99.90;;;;;;5098738;28;20544;-72
2022/03/16 11:14:47;;;;;;;20.63;16.95;;;13.30;99.90;;;;;;5110165;28;20022;-71
2022/03/16 11:17:13;;;;;;;20.05;16.10;;;13.40;99.90;;;;;;5095874;28;20039;-71
2022/03/16 11:19:39;;;;;;;19.00;17.02;;;13.20;99.90;;;;;;5111811;28;20031;-72
2022/03/16 11:22:07;;;;;;;20.95;16.00;;;13.50;99.90;;;;;;5113968;28;20020;-71
2022/03/16 11:24:37;;;;;;;17.55;15.75;;;13.50;99.90;;;;;;5078099;28;20452;-72
2022/03/16 11:27:15;;;;;;;18.52;16.17;;;13.70;99.90;;;;;;5110368;28;20015;-71
2022/03/16 11:30:10;;;;;;;19.70;16.75;;;13.60;99.90;;;;;;5111536;28;20487;-72
2022/03/16 11:32:41;;;;;;;21.42;16.70;;;13.70;99.90;;;;;;5106992;28;20030;-71
2022/03/16 11:35:08;;;;;;;15.95;14.20;;;13.90;99.90;;;;;;5106891;28;20034;-71
2022/03/16 11:37:38;;;;;;;18.80;16.67;;;14.00;99.90;;;;;;5113826;28;20035;-72
2022/03/16 11:40:10;;;;;;;18.02;15.77;;;13.50;99.90;;;;;;5106325;28;20504;-72
2022/03/16 11:42:37;;;;;;;22.23;15.82;;;13.30;99.90;;;;;;5106084;28;20042;-72
2022/03/16 11:45:41;;;;;;;17.88;15.98;;;13.30;99.90;;;;;;5111103;28;20483;-71
2022/03/16 11:48:31;;;;;;;16.85;14.90;;;13.50;99.90;;;;;;5110527;28;20109;-72
2022/03/16 11:51:08;;;;;;;18.77;15.40;;;13.70;99.90;;;;;;5091605;28;20054;-72
2022/03/16 11:56:23;;;;;;;18.02;15.38;;;14.00;99.90;;;;;;5108507;28;20036;-73
2022/03/16 11:58:53;;;;;;;17.83;15.98;;;14.10;99.90;;;;;;5109314;28;20491;-72
2022/03/16 12:01:29;;;;;;;17.90;15.98;;;13.80;99.90;;;;;;5111638;28;20125;-72
2022/03/16 12:04:22;;;;;;;17.83;15.93;;;14.10;99.90;;;;;;5086279;28;20028;-71
2022/03/16 12:07:01;;;;;;;17.52;15.27;;;14.00;99.90;;;;;;5089126;28;20019;-72
2022/03/16 12:09:47;;;;;;;16.80;15.15;;;14.00;99.90;;;;;;5110622;28;20095;-72
2022/03/16 12:15:11;;;;;;;17.35;15.10;;;14.00;99.90;;;;;;5112131;28;20058;-72
2022/03/16 12:18:00;;;;;;;16.27;14.68;;;14.00;99.90;;;;;;5105074;28;20098;-72
2022/03/16 12:20:34;;;;;;;17.83;15.90;;;14.00;99.90;;;;;;5092889;28;20051;-71
2022/03/16 12:23:02;;;;;;;16.85;15.18;;;13.60;99.90;;;;;;5090489;28;20023;-72
2022/03/16 12:25:32;;;;;;;18.48;14.80;;;13.60;99.90;;;;;;5105583;28;20020;-71
2022/03/16 12:31:17;;;;;;;17.60;15.80;;;13.60;99.90;;;;;;5107460;28;20042;-71
2022/03/16 12:33:45;;;;;;;16.23;14.18;;;13.60;99.90;;;;;;5088800;28;20028;-74
2022/03/16 12:36:12;;;;;;;19.38;15.18;;;13.40;99.90;;;;;;5110259;28;20115;-71
2022/03/16 12:38:43;;;;;;;15.52;13.93;;;13.20;99.90;;;;;;5107471;28;20051;-72
2022/03/16 12:43:57;;;;;;;15.02;13.43;;;13.40;99.90;;;;;;5108855;28;20034;-71
2022/03/16 12:46:25;;;;;;;17.98;14.82;;;13.20;99.90;;;;;;5093678;28;20443;-71
2022/03/16 12:48:56;;;;;;;16.08;14.40;;;13.20;99.90;;;;;;5110970;28;20020;-73
2022/03/16 12:51:40;;;;;;;18.27;14.70;;;13.20;99.90;;;;;;5106505;28;20030;-72
2022/03/16 12:54:07;;;;;;;16.40;14.45;;;13.00;99.90;;;;;;5090401;28;20560;-71
2022/03/16 12:56:44;;;;;;;16.92;14.90;;;13.60;99.90;;;;;;5107697;28;20030;-71
2022/03/16 12:59:11;;;;;;;21.42;15.82;;;13.60;99.90;;;;;;5106320;28;20138;-71
2022/03/16 13:01:37;;;;;;;19.05;14.32;;;13.30;99.90;;;;;;5107167;28;20095;-72